KHUA/HUA METAR and TAF weather

Enter ICAO airport designator
Station Type Date Time Source
KHUA METAR 2021/05/11 00:08 UTC NOAA

KHUA 110008Z AUTO 04008KT 10SM OVC014 14/12 A3006 RMK AO2 SLP179


Station Type Date Time Source
KHUA Decoded METAR 2021/05/11 00:08 UTC NOAA

Station name not available
May 10, 2021 - 08:08 PM EDT / 2021.05.11 0008 UTC
Wind: from the NE (040 degrees) at 9 MPH (8 KT):0
Visibility: 10 mile(s):0
Sky conditions: overcast
Temperature: 57 F (14 C)
Dew Point: 53 F (12 C)
Relative Humidity: 87%
Pressure (altimeter): 30.06 in. Hg (1017 hPa)
ob: KHUA 110008Z AUTO 04008KT 10SM OVC014 14/12 A3006 RMK AO2 SLP179
cycle: 0

Station Type Date Time Source
KHUA TAF UTC NOAA

Error!

Example: see airport list